sensor_id;sensor_type;location;lat;lon;timestamp;pressure;altitude;pressure_sealevel;temperature;humidity
43480;BME280;29067;35.492;-97.520;2023-02-28T00:01:48;96367.59;;;21.10;17.78
43480;BME280;29067;35.492;-97.520;2023-02-28T00:04:22;96367.16;;;20.62;18.31
43480;BME280;29067;35.492;-97.520;2023-02-28T00:06:49;96364.67;;;20.47;18.80
43480;BME280;29067;35.492;-97.520;2023-02-28T00:09:18;96366.45;;;20.46;18.33
43480;BME280;29067;35.492;-97.520;2023-02-28T00:11:45;96358.22;;;22.06;17.60
43480;BME280;29067;35.492;-97.520;2023-02-28T00:14:13;96363.82;;;21.30;18.29
43480;BME280;29067;35.492;-97.520;2023-02-28T00:16:40;96369.59;;;22.13;18.46
43480;BME280;29067;35.492;-97.520;2023-02-28T00:19:08;96373.08;;;21.81;18.90
43480;BME280;29067;35.492;-97.520;2023-02-28T00:21:36;96373.70;;;22.34;18.13
43480;BME280;29067;35.492;-97.520;2023-02-28T00:24:05;96376.03;;;22.85;19.47
43480;BME280;29067;35.492;-97.520;2023-02-28T00:26:33;96376.96;;;22.75;18.79
43480;BME280;29067;35.492;-97.520;2023-02-28T00:29:01;96378.43;;;22.42;17.40
43480;BME280;29067;35.492;-97.520;2023-02-28T00:31:29;96385.21;;;20.79;17.82
43480;BME280;29067;35.492;-97.520;2023-02-28T00:33:56;96386.92;;;20.11;18.28
43480;BME280;29067;35.492;-97.520;2023-02-28T00:36:24;96394.17;;;18.86;19.84
43480;BME280;29067;35.492;-97.520;2023-02-28T00:38:53;96401.55;;;17.18;21.13
43480;BME280;29067;35.492;-97.520;2023-02-28T00:41:20;96404.76;;;19.15;20.76
43480;BME280;29067;35.492;-97.520;2023-02-28T00:43:48;96408.12;;;18.69;21.98
43480;BME280;29067;35.492;-97.520;2023-02-28T00:46:16;96404.52;;;19.80;20.66
43480;BME280;29067;35.492;-97.520;2023-02-28T00:48:43;96402.88;;;20.22;20.36
43480;BME280;29067;35.492;-97.520;2023-02-28T00:51:12;96405.67;;;20.33;20.81
43480;BME280;29067;35.492;-97.520;2023-02-28T00:53:39;96417.14;;;19.32;21.28
43480;BME280;29067;35.492;-97.520;2023-02-28T00:56:07;96418.92;;;19.15;22.20
43480;BME280;29067;35.492;-97.520;2023-02-28T00:58:36;96420.47;;;19.64;22.13
43480;BME280;29067;35.492;-97.520;2023-02-28T01:01:03;96427.26;;;18.95;22.83
43480;BME280;29067;35.492;-97.520;2023-02-28T01:03:32;96430.88;;;19.22;23.36
43480;BME280;29067;35.492;-97.520;2023-02-28T01:06:01;96434.04;;;16.96;24.16
43480;BME280;29067;35.492;-97.520;2023-02-28T01:08:30;96435.10;;;16.01;25.66
43480;BME280;29067;35.492;-97.520;2023-02-28T01:10:57;96432.02;;;16.75;25.27
43480;BME280;29067;35.492;-97.520;2023-02-28T01:13:25;96437.41;;;15.69;26.02
43480;BME280;29067;35.492;-97.520;2023-02-28T01:15:55;96435.44;;;16.80;25.04
43480;BME280;29067;35.492;-97.520;2023-02-28T01:18:23;96442.71;;;15.03;25.83
43480;BME280;29067;35.492;-97.520;2023-02-28T01:20:51;96445.08;;;16.49;25.75
43480;BME280;29067;35.492;-97.520;2023-02-28T01:23:19;96438.03;;;15.31;26.25
43480;BME280;29067;35.492;-97.520;2023-02-28T01:25:48;96438.30;;;17.00;25.03
43480;BME280;29067;35.492;-97.520;2023-02-28T01:28:16;96449.93;;;15.60;25.37
43480;BME280;29067;35.492;-97.520;2023-02-28T01:30:48;96457.80;;;16.96;24.81
43480;BME280;29067;35.492;-97.520;2023-02-28T01:33:16;96461.93;;;16.61;24.86
43480;BME280;29067;35.492;-97.520;2023-02-28T01:35:44;96461.79;;;16.74;24.98
43480;BME280;29067;35.492;-97.520;2023-02-28T01:38:12;96464.26;;;16.12;24.96
43480;BME280;29067;35.492;-97.520;2023-02-28T01:40:40;96466.89;;;16.70;24.65
43480;BME280;29067;35.492;-97.520;2023-02-28T01:43:20;96470.06;;;16.34;24.80
43480;BME280;29067;35.492;-97.520;2023-02-28T01:45:49;96477.96;;;16.34;25.04
43480;BME280;29067;35.492;-97.520;2023-02-28T01:48:18;96478.19;;;16.83;24.55
43480;BME280;29067;35.492;-97.520;2023-02-28T01:50:48;96477.27;;;14.48;25.92
43480;BME280;29067;35.492;-97.520;2023-02-28T01:53:19;96478.02;;;15.70;26.05
43480;BME280;29067;35.492;-97.520;2023-02-28T01:55:51;96477.65;;;14.96;26.25
43480;BME280;29067;35.492;-97.520;2023-02-28T01:58:20;96477.27;;;16.67;25.68
43480;BME280;29067;35.492;-97.520;2023-02-28T02:00:49;96477.12;;;16.39;25.27
43480;BME280;29067;35.492;-97.520;2023-02-28T02:03:19;96481.12;;;16.17;25.16
43480;BME280;29067;35.492;-97.520;2023-02-28T02:05:48;96478.31;;;16.53;25.45
43480;BME280;29067;35.492;-97.520;2023-02-28T02:08:19;96482.63;;;16.41;25.55
43480;BME280;29067;35.492;-97.520;2023-02-28T02:10:49;96478.96;;;16.13;25.31
43480;BME280;29067;35.492;-97.520;2023-02-28T02:13:30;96474.59;;;16.38;24.85
43480;BME280;29067;35.492;-97.520;2023-02-28T02:16:11;96469.40;;;16.63;25.11
43480;BME280;29067;35.492;-97.520;2023-02-28T02:18:48;96469.08;;;16.53;24.72
43480;BME280;29067;35.492;-97.520;2023-02-28T02:22:36;96464.44;;;16.87;25.04
43480;BME280;29067;35.492;-97.520;2023-02-28T02:25:23;96467.83;;;16.20;24.94
43480;BME280;29067;35.492;-97.520;2023-02-28T02:28:16;96461.51;;;16.40;25.07
43480;BME280;29067;35.492;-97.520;2023-02-28T02:31:06;96460.53;;;17.10;24.33
43480;BME280;29067;35.492;-97.520;2023-02-28T02:34:56;96464.69;;;15.76;25.07
43480;BME280;29067;35.492;-97.520;2023-02-28T02:37:32;96459.72;;;14.60;25.74
43480;BME280;29067;35.492;-97.520;2023-02-28T02:40:11;96454.86;;;15.91;25.15
43480;BME280;29067;35.492;-97.520;2023-02-28T02:42:50;96456.28;;;16.16;25.03
43480;BME280;29067;35.492;-97.520;2023-02-28T02:45:24;96456.94;;;15.22;25.30
43480;BME280;29067;35.492;-97.520;2023-02-28T02:47:55;96458.90;;;15.78;25.17
43480;BME280;29067;35.492;-97.520;2023-02-28T02:50:26;96461.05;;;15.52;25.39
43480;BME280;29067;35.492;-97.520;2023-02-28T02:52:59;96461.51;;;14.28;26.41
43480;BME280;29067;35.492;-97.520;2023-02-28T02:55:30;96463.29;;;14.34;26.34
43480;BME280;29067;35.492;-97.520;2023-02-28T02:58:04;96464.75;;;15.15;26.01
43480;BME280;29067;35.492;-97.520;2023-02-28T03:00:35;96462.48;;;15.00;26.02
43480;BME280;29067;35.492;-97.520;2023-02-28T03:03:07;96467.93;;;13.73;26.87
43480;BME280;29067;35.492;-97.520;2023-02-28T03:05:43;96477.32;;;14.30;27.19
43480;BME280;29067;35.492;-97.520;2023-02-28T03:08:18;96485.79;;;13.61;27.16
43480;BME280;29067;35.492;-97.520;2023-02-28T03:10:49;96486.71;;;13.57;27.57
43480;BME280;29067;35.492;-97.520;2023-02-28T03:14:04;96488.34;;;14.07;27.37
43480;BME280;29067;35.492;-97.520;2023-02-28T03:16:47;96494.14;;;14.27;27.39
43480;BME280;29067;35.492;-97.520;2023-02-28T03:19:30;96500.95;;;14.02;27.42
43480;BME280;29067;35.492;-97.520;2023-02-28T03:22:16;96510.12;;;13.36;27.45
43480;BME280;29067;35.492;-97.520;2023-02-28T03:24:52;96509.65;;;14.77;26.82
43480;BME280;29067;35.492;-97.520;2023-02-28T03:27:27;96517.41;;;17.00;25.79
43480;BME280;29067;35.492;-97.520;2023-02-28T03:30:03;96523.32;;;16.45;25.69
43480;BME280;29067;35.492;-97.520;2023-02-28T03:32:36;96523.44;;;16.08;25.38
43480;BME280;29067;35.492;-97.520;2023-02-28T03:35:09;96526.00;;;16.97;25.22
43480;BME280;29067;35.492;-97.520;2023-02-28T03:37:42;96519.97;;;16.51;25.24
43480;BME280;29067;35.492;-97.520;2023-02-28T03:40:16;96519.17;;;16.83;25.49
43480;BME280;29067;35.492;-97.520;2023-02-28T03:42:48;96517.53;;;17.72;25.14
43480;BME280;29067;35.492;-97.520;2023-02-28T03:45:20;96518.56;;;15.51;25.53
43480;BME280;29067;35.492;-97.520;2023-02-28T03:47:59;96514.83;;;16.00;25.78
43480;BME280;29067;35.492;-97.520;2023-02-28T03:50:32;96511.22;;;14.61;26.71
43480;BME280;29067;35.492;-97.520;2023-02-28T03:53:08;96507.43;;;15.34;26.25
43480;BME280;29067;35.492;-97.520;2023-02-28T03:55:43;96510.86;;;15.13;26.68
43480;BME280;29067;35.492;-97.520;2023-02-28T03:58:17;96515.21;;;14.22;27.48
43480;BME280;29067;35.492;-97.520;2023-02-28T04:00:52;96513.74;;;15.02;26.85
43480;BME280;29067;35.492;-97.520;2023-02-28T04:03:23;96513.03;;;14.09;27.78
43480;BME280;29067;35.492;-97.520;2023-02-28T04:05:53;96511.73;;;14.18;27.67
43480;BME280;29067;35.492;-97.520;2023-02-28T04:08:22;96509.25;;;14.93;27.26
43480;BME280;29067;35.492;-97.520;2023-02-28T04:10:56;96507.21;;;14.57;29.03
43480;BME280;29067;35.492;-97.520;2023-02-28T04:13:26;96503.99;;;14.84;28.53
43480;BME280;29067;35.492;-97.520;2023-02-28T04:15:54;96498.83;;;15.23;28.29
43480;BME280;29067;35.492;-97.520;2023-02-28T04:18:21;96500.23;;;15.93;27.75
43480;BME280;29067;35.492;-97.520;2023-02-28T04:20:49;96503.72;;;14.82;27.10
43480;BME280;29067;35.492;-97.520;2023-02-28T04:23:22;96501.49;;;15.15;26.95
43480;BME280;29067;35.492;-97.520;2023-02-28T04:25:50;96503.85;;;13.80;27.86
43480;BME280;29067;35.492;-97.520;2023-02-28T04:28:18;96499.02;;;14.82;27.40
43480;BME280;29067;35.492;-97.520;2023-02-28T04:30:54;96502.34;;;14.92;26.96
43480;BME280;29067;35.492;-97.520;2023-02-28T04:33:23;96502.28;;;14.19;27.46
43480;BME280;29067;35.492;-97.520;2023-02-28T04:35:59;96506.64;;;13.16;28.04
43480;BME280;29067;35.492;-97.520;2023-02-28T04:38:32;96504.95;;;13.69;28.07
43480;BME280;29067;35.492;-97.520;2023-02-28T04:41:01;96496.38;;;14.34;26.80
43480;BME280;29067;35.492;-97.520;2023-02-28T04:43:30;96498.61;;;13.96;27.31
43480;BME280;29067;35.492;-97.520;2023-02-28T04:46:02;96495.93;;;13.92;27.31
43480;BME280;29067;35.492;-97.520;2023-02-28T04:48:37;96484.79;;;14.24;27.28
43480;BME280;29067;35.492;-97.520;2023-02-28T04:51:08;96482.25;;;14.38;27.09
43480;BME280;29067;35.492;-97.520;2023-02-28T04:53:37;96485.91;;;13.28;27.61
43480;BME280;29067;35.492;-97.520;2023-02-28T04:56:07;96490.34;;;11.88;28.96
43480;BME280;29067;35.492;-97.520;2023-02-28T04:58:36;96485.67;;;12.92;28.45
43480;BME280;29067;35.492;-97.520;2023-02-28T05:01:06;96477.30;;;12.93;28.70
43480;BME280;29067;35.492;-97.520;2023-02-28T05:03:35;96473.43;;;13.04;28.56
43480;BME280;29067;35.492;-97.520;2023-02-28T05:06:03;96478.35;;;12.06;29.63
43480;BME280;29067;35.492;-97.520;2023-02-28T05:08:32;96484.10;;;12.23;29.80
43480;BME280;29067;35.492;-97.520;2023-02-28T05:11:01;96487.54;;;12.52;29.65
43480;BME280;29067;35.492;-97.520;2023-02-28T05:13:30;96482.45;;;11.82;30.11
43480;BME280;29067;35.492;-97.520;2023-02-28T05:15:58;96478.36;;;12.15;29.97
43480;BME280;29067;35.492;-97.520;2023-02-28T05:18:25;96473.17;;;12.28;29.66
43480;BME280;29067;35.492;-97.520;2023-02-28T05:20:54;96478.61;;;11.29;30.50
43480;BME280;29067;35.492;-97.520;2023-02-28T05:23:23;96477.35;;;11.26;30.61
43480;BME280;29067;35.492;-97.520;2023-02-28T05:25:50;96469.76;;;11.86;30.18
43480;BME280;29067;35.492;-97.520;2023-02-28T05:28:20;96469.30;;;11.39;30.31
43480;BME280;29067;35.492;-97.520;2023-02-28T05:30:48;96463.21;;;10.38;30.99
43480;BME280;29067;35.492;-97.520;2023-02-28T05:33:16;96456.93;;;12.24;29.73
43480;BME280;29067;35.492;-97.520;2023-02-28T05:35:43;96453.68;;;13.03;29.31
43480;BME280;29067;35.492;-97.520;2023-02-28T05:38:11;96455.34;;;11.47;30.23
43480;BME280;29067;35.492;-97.520;2023-02-28T05:40:39;96456.00;;;10.30;31.14
43480;BME280;29067;35.492;-97.520;2023-02-28T05:43:10;96457.09;;;12.08;30.77
43480;BME280;29067;35.492;-97.520;2023-02-28T05:45:39;96455.67;;;10.81;31.40
43480;BME280;29067;35.492;-97.520;2023-02-28T05:48:10;96450.93;;;10.96;31.61
43480;BME280;29067;35.492;-97.520;2023-02-28T05:50:38;96447.88;;;10.70;31.92
43480;BME280;29067;35.492;-97.520;2023-02-28T05:53:06;96452.00;;;11.29;31.34
43480;BME280;29067;35.492;-97.520;2023-02-28T05:55:33;96451.45;;;9.54;32.54
43480;BME280;29067;35.492;-97.520;2023-02-28T05:58:01;96448.25;;;10.21;32.55
43480;BME280;29067;35.492;-97.520;2023-02-28T06:00:29;96447.94;;;10.50;32.14
43480;BME280;29067;35.492;-97.520;2023-02-28T06:02:57;96450.58;;;10.10;32.17
43480;BME280;29067;35.492;-97.520;2023-02-28T06:05:25;96445.27;;;10.77;32.13
43480;BME280;29067;35.492;-97.520;2023-02-28T06:07:53;96442.71;;;10.06;32.60
43480;BME280;29067;35.492;-97.520;2023-02-28T06:10:21;96443.96;;;10.90;31.82
43480;BME280;29067;35.492;-97.520;2023-02-28T06:12:49;96440.39;;;11.15;31.67
43480;BME280;29067;35.492;-97.520;2023-02-28T06:15:17;96440.83;;;11.00;31.38
43480;BME280;29067;35.492;-97.520;2023-02-28T06:17:45;96438.14;;;10.29;32.27
43480;BME280;29067;35.492;-97.520;2023-02-28T06:20:12;96436.36;;;10.92;31.85
43480;BME280;29067;35.492;-97.520;2023-02-28T06:22:40;96434.35;;;11.28;31.43
43480;BME280;29067;35.492;-97.520;2023-02-28T06:25:09;96425.97;;;11.29;30.73
43480;BME280;29067;35.492;-97.520;2023-02-28T06:27:38;96427.54;;;11.09;31.46
43480;BME280;29067;35.492;-97.520;2023-02-28T06:30:07;96419.78;;;10.82;31.60
43480;BME280;29067;35.492;-97.520;2023-02-28T06:32:36;96418.36;;;11.16;31.60
43480;BME280;29067;35.492;-97.520;2023-02-28T06:35:04;96416.04;;;10.66;31.29
43480;BME280;29067;35.492;-97.520;2023-02-28T06:37:32;96410.10;;;11.02;31.55
43480;BME280;29067;35.492;-97.520;2023-02-28T06:40:01;96404.46;;;9.40;33.16
43480;BME280;29067;35.492;-97.520;2023-02-28T06:42:29;96390.94;;;10.35;32.37
43480;BME280;29067;35.492;-97.520;2023-02-28T06:44:57;96387.47;;;9.80;32.57
43480;BME280;29067;35.492;-97.520;2023-02-28T06:47:26;96386.95;;;8.56;33.80
43480;BME280;29067;35.492;-97.520;2023-02-28T06:49:54;96378.54;;;10.86;32.91
43480;BME280;29067;35.492;-97.520;2023-02-28T06:52:22;96376.61;;;9.57;33.17
43480;BME280;29067;35.492;-97.520;2023-02-28T06:54:50;96373.57;;;9.82;33.06
43480;BME280;29067;35.492;-97.520;2023-02-28T06:57:17;96372.68;;;9.90;33.31
43480;BME280;29067;35.492;-97.520;2023-02-28T06:59:45;96366.93;;;10.21;33.26
43480;BME280;29067;35.492;-97.520;2023-02-28T07:02:13;96364.98;;;9.31;33.42
43480;BME280;29067;35.492;-97.520;2023-02-28T07:04:41;96369.27;;;9.86;33.19
43480;BME280;29067;35.492;-97.520;2023-02-28T07:07:09;96371.22;;;9.65;33.36
43480;BME280;29067;35.492;-97.520;2023-02-28T07:09:37;96371.68;;;10.42;32.66
43480;BME280;29067;35.492;-97.520;2023-02-28T07:12:06;96364.55;;;9.35;33.18
43480;BME280;29067;35.492;-97.520;2023-02-28T07:14:33;96368.66;;;10.34;32.78
43480;BME280;29067;35.492;-97.520;2023-02-28T07:17:09;96365.23;;;9.20;33.36
43480;BME280;29067;35.492;-97.520;2023-02-28T07:19:42;96362.90;;;9.54;33.00
43480;BME280;29067;35.492;-97.520;2023-02-28T07:22:11;96369.92;;;9.21;33.35
43480;BME280;29067;35.492;-97.520;2023-02-28T07:24:39;96369.61;;;9.32;33.10
43480;BME280;29067;35.492;-97.520;2023-02-28T07:27:07;96361.93;;;9.63;32.38
43480;BME280;29067;35.492;-97.520;2023-02-28T07:29:35;96367.31;;;9.43;32.32
43480;BME280;29067;35.492;-97.520;2023-02-28T07:32:04;96365.40;;;9.57;32.48
43480;BME280;29067;35.492;-97.520;2023-02-28T07:34:32;96362.60;;;9.61;32.57
43480;BME280;29067;35.492;-97.520;2023-02-28T07:37:00;96357.61;;;9.46;32.41
43480;BME280;29067;35.492;-97.520;2023-02-28T07:39:28;96357.77;;;8.10;33.28
43480;BME280;29067;35.492;-97.520;2023-02-28T07:41:56;96358.74;;;9.23;33.41
43480;BME280;29067;35.492;-97.520;2023-02-28T07:44:24;96362.29;;;8.54;33.10
43480;BME280;29067;35.492;-97.520;2023-02-28T07:46:52;96362.06;;;8.22;33.09
43480;BME280;29067;35.492;-97.520;2023-02-28T07:49:20;96365.08;;;9.09;32.55
43480;BME280;29067;35.492;-97.520;2023-02-28T07:51:48;96369.83;;;7.72;33.47
43480;BME280;29067;35.492;-97.520;2023-02-28T07:54:16;96359.74;;;8.15;34.16
43480;BME280;29067;35.492;-97.520;2023-02-28T07:56:45;96359.32;;;8.76;34.38
43480;BME280;29067;35.492;-97.520;2023-02-28T07:59:12;96352.39;;;9.13;33.74
43480;BME280;29067;35.492;-97.520;2023-02-28T08:01:40;96351.10;;;8.98;33.18
43480;BME280;29067;35.492;-97.520;2023-02-28T08:04:08;96356.40;;;8.84;34.05
43480;BME280;29067;35.492;-97.520;2023-02-28T08:06:36;96351.36;;;8.40;34.43
43480;BME280;29067;35.492;-97.520;2023-02-28T08:09:04;96340.67;;;7.39;34.83
43480;BME280;29067;35.492;-97.520;2023-02-28T08:11:32;96335.56;;;8.51;34.56
43480;BME280;29067;35.492;-97.520;2023-02-28T08:14:00;96328.86;;;7.66;35.69
43480;BME280;29067;35.492;-97.520;2023-02-28T08:16:28;96322.83;;;8.16;35.66
43480;BME280;29067;35.492;-97.520;2023-02-28T08:18:56;96329.95;;;8.65;35.20
43480;BME280;29067;35.492;-97.520;2023-02-28T08:21:24;96327.91;;;8.35;35.15
43480;BME280;29067;35.492;-97.520;2023-02-28T08:23:51;96326.08;;;7.73;35.68
43480;BME280;29067;35.492;-97.520;2023-02-28T08:26:19;96318.99;;;7.72;35.77
43480;BME280;29067;35.492;-97.520;2023-02-28T08:28:48;96316.10;;;7.06;36.00
43480;BME280;29067;35.492;-97.520;2023-02-28T08:31:33;96316.09;;;7.78;36.23
43480;BME280;29067;35.492;-97.520;2023-02-28T08:34:06;96310.25;;;7.70;36.01
43480;BME280;29067;35.492;-97.520;2023-02-28T08:36:34;96315.49;;;7.96;35.86
43480;BME280;29067;35.492;-97.520;2023-02-28T08:39:03;96307.90;;;7.47;36.21
43480;BME280;29067;35.492;-97.520;2023-02-28T08:41:32;96303.42;;;7.38;36.29
43480;BME280;29067;35.492;-97.520;2023-02-28T08:44:01;96294.02;;;7.00;36.49
43480;BME280;29067;35.492;-97.520;2023-02-28T08:46:29;96284.82;;;7.89;36.04
43480;BME280;29067;35.492;-97.520;2023-02-28T08:48:57;96285.57;;;7.72;36.00
43480;BME280;29067;35.492;-97.520;2023-02-28T08:51:26;96283.24;;;7.26;36.36
43480;BME280;29067;35.492;-97.520;2023-02-28T08:53:55;96282.02;;;6.94;36.69
43480;BME280;29067;35.492;-97.520;2023-02-28T08:56:25;96291.03;;;7.23;37.37
43480;BME280;29067;35.492;-97.520;2023-02-28T08:58:55;96295.94;;;6.90;37.33
43480;BME280;29067;35.492;-97.520;2023-02-28T09:01:25;96293.24;;;5.93;37.94
43480;BME280;29067;35.492;-97.520;2023-02-28T09:03:54;96282.05;;;7.52;37.05
43480;BME280;29067;35.492;-97.520;2023-02-28T09:06:26;96282.43;;;6.55;36.91
43480;BME280;29067;35.492;-97.520;2023-02-28T09:08:56;96282.66;;;7.47;35.32
43480;BME280;29067;35.492;-97.520;2023-02-28T09:11:25;96271.47;;;6.65;35.85
43480;BME280;29067;35.492;-97.520;2023-02-28T09:13:54;96270.58;;;7.14;35.64
43480;BME280;29067;35.492;-97.520;2023-02-28T09:16:22;96262.51;;;6.22;36.72
43480;BME280;29067;35.492;-97.520;2023-02-28T09:18:50;96266.94;;;6.59;36.54
43480;BME280;29067;35.492;-97.520;2023-02-28T09:21:19;96270.05;;;8.64;34.61
43480;BME280;29067;35.492;-97.520;2023-02-28T09:23:48;96269.60;;;6.73;35.02
43480;BME280;29067;35.492;-97.520;2023-02-28T09:26:18;96264.71;;;8.08;34.70
43480;BME280;29067;35.492;-97.520;2023-02-28T09:28:47;96267.79;;;6.68;35.33
43480;BME280;29067;35.492;-97.520;2023-02-28T09:31:18;96267.88;;;8.49;34.19
43480;BME280;29067;35.492;-97.520;2023-02-28T09:33:47;96269.50;;;7.17;34.58
43480;BME280;29067;35.492;-97.520;2023-02-28T09:36:17;96266.48;;;7.30;34.36
43480;BME280;29067;35.492;-97.520;2023-02-28T09:38:52;96265.89;;;8.02;33.84
43480;BME280;29067;35.492;-97.520;2023-02-28T09:41:23;96272.03;;;8.77;32.47
43480;BME280;29067;35.492;-97.520;2023-02-28T09:43:59;96270.74;;;8.15;33.17
43480;BME280;29067;35.492;-97.520;2023-02-28T09:46:33;96268.66;;;6.88;34.00
43480;BME280;29067;35.492;-97.520;2023-02-28T09:49:07;96258.14;;;8.83;32.42
43480;BME280;29067;35.492;-97.520;2023-02-28T09:51:55;96251.24;;;8.70;32.36
43480;BME280;29067;35.492;-97.520;2023-02-28T09:54:28;96248.86;;;7.96;32.81
43480;BME280;29067;35.492;-97.520;2023-02-28T09:57:01;96253.90;;;8.00;33.20
43480;BME280;29067;35.492;-97.520;2023-02-28T09:59:48;96259.80;;;5.85;35.10
43480;BME280;29067;35.492;-97.520;2023-02-28T10:02:46;96250.16;;;8.36;33.13
43480;BME280;29067;35.492;-97.520;2023-02-28T10:05:20;96256.59;;;7.98;33.03
43480;BME280;29067;35.492;-97.520;2023-02-28T10:08:00;96256.39;;;8.48;32.44
43480;BME280;29067;35.492;-97.520;2023-02-28T10:10:34;96252.91;;;8.59;32.10
43480;BME280;29067;35.492;-97.520;2023-02-28T10:13:17;96254.80;;;8.60;32.62
43480;BME280;29067;35.492;-97.520;2023-02-28T10:15:49;96247.35;;;8.02;32.50
43480;BME280;29067;35.492;-97.520;2023-02-28T10:18:24;96244.72;;;9.08;32.11
43480;BME280;29067;35.492;-97.520;2023-02-28T10:20:53;96249.62;;;8.86;31.95
43480;BME280;29067;35.492;-97.520;2023-02-28T10:23:25;96246.45;;;7.98;32.45
43480;BME280;29067;35.492;-97.520;2023-02-28T10:25:57;96240.29;;;8.17;32.20
43480;BME280;29067;35.492;-97.520;2023-02-28T10:28:28;96245.18;;;8.86;31.62
43480;BME280;29067;35.492;-97.520;2023-02-28T10:30:57;96258.23;;;6.92;33.10
43480;BME280;29067;35.492;-97.520;2023-02-28T10:33:30;96254.56;;;7.96;32.33
43480;BME280;29067;35.492;-97.520;2023-02-28T10:35:59;96260.15;;;7.52;33.41
43480;BME280;29067;35.492;-97.520;2023-02-28T10:38:33;96255.27;;;7.25;33.10
43480;BME280;29067;35.492;-97.520;2023-02-28T10:41:06;96254.85;;;6.61;33.72
43480;BME280;29067;35.492;-97.520;2023-02-28T10:43:43;96263.79;;;6.82;34.30
43480;BME280;29067;35.492;-97.520;2023-02-28T10:46:14;96262.86;;;7.59;32.94
43480;BME280;29067;35.492;-97.520;2023-02-28T10:48:45;96272.09;;;6.97;33.72
43480;BME280;29067;35.492;-97.520;2023-02-28T10:51:18;96279.96;;;7.10;33.31
43480;BME280;29067;35.492;-97.520;2023-02-28T10:53:49;96277.85;;;7.21;33.20
43480;BME280;29067;35.492;-97.520;2023-02-28T10:56:19;96285.22;;;5.97;34.93
43480;BME280;29067;35.492;-97.520;2023-02-28T10:58:51;96283.86;;;6.75;34.20
43480;BME280;29067;35.492;-97.520;2023-02-28T11:01:22;96287.70;;;6.65;34.37
43480;BME280;29067;35.492;-97.520;2023-02-28T11:03:51;96293.23;;;7.01;33.61
43480;BME280;29067;35.492;-97.520;2023-02-28T11:06:22;96306.24;;;5.81;34.17
43480;BME280;29067;35.492;-97.520;2023-02-28T11:08:54;96303.63;;;6.74;34.35
43480;BME280;29067;35.492;-97.520;2023-02-28T11:11:25;96302.78;;;7.07;33.50
43480;BME280;29067;35.492;-97.520;2023-02-28T11:13:55;96302.13;;;5.57;34.98
43480;BME280;29067;35.492;-97.520;2023-02-28T11:16:33;96302.27;;;4.51;35.67
43480;BME280;29067;35.492;-97.520;2023-02-28T11:19:02;96304.56;;;5.54;35.08
43480;BME280;29067;35.492;-97.520;2023-02-28T11:21:35;96298.74;;;6.63;33.63
43480;BME280;29067;35.492;-97.520;2023-02-28T11:24:07;96296.84;;;6.77;33.74
43480;BME280;29067;35.492;-97.520;2023-02-28T11:26:44;96293.84;;;6.62;33.86
43480;BME280;29067;35.492;-97.520;2023-02-28T11:29:19;96296.62;;;6.81;33.23
43480;BME280;29067;35.492;-97.520;2023-02-28T11:32:04;96298.87;;;6.83;33.46
43480;BME280;29067;35.492;-97.520;2023-02-28T11:34:32;96301.02;;;6.31;33.97
43480;BME280;29067;35.492;-97.520;2023-02-28T11:37:01;96294.35;;;7.60;32.68
43480;BME280;29067;35.492;-97.520;2023-02-28T11:39:32;96293.05;;;7.29;32.88
43480;BME280;29067;35.492;-97.520;2023-02-28T11:42:13;96292.67;;;6.82;32.76
43480;BME280;29067;35.492;-97.520;2023-02-28T11:44:53;96292.88;;;6.50;32.75
43480;BME280;29067;35.492;-97.520;2023-02-28T11:47:33;96299.80;;;6.15;34.29
43480;BME280;29067;35.492;-97.520;2023-02-28T11:50:27;96290.95;;;7.26;32.93
43480;BME280;29067;35.492;-97.520;2023-02-28T11:53:11;96304.11;;;6.86;32.70
43480;BME280;29067;35.492;-97.520;2023-02-28T11:55:52;96315.20;;;6.48;33.03
43480;BME280;29067;35.492;-97.520;2023-02-28T11:58:40;96316.95;;;5.12;34.53
43480;BME280;29067;35.492;-97.520;2023-02-28T12:03:08;96318.50;;;6.26;32.95
43480;BME280;29067;35.492;-97.520;2023-02-28T12:05:45;96324.67;;;5.95;33.22
43480;BME280;29067;35.492;-97.520;2023-02-28T12:08:27;96326.27;;;7.07;33.00
43480;BME280;29067;35.492;-97.520;2023-02-28T12:11:09;96322.14;;;6.08;33.35
43480;BME280;29067;35.492;-97.520;2023-02-28T12:13:50;96318.53;;;6.01;33.02
43480;BME280;29067;35.492;-97.520;2023-02-28T12:16:34;96308.15;;;6.55;32.44
43480;BME280;29067;35.492;-97.520;2023-02-28T12:19:13;96314.02;;;5.19;33.36
43480;BME280;29067;35.492;-97.520;2023-02-28T12:22:00;96303.46;;;5.82;33.03
43480;BME280;29067;35.492;-97.520;2023-02-28T12:24:43;96303.19;;;6.16;33.42
43480;BME280;29067;35.492;-97.520;2023-02-28T12:27:18;96295.04;;;6.45;32.75
43480;BME280;29067;35.492;-97.520;2023-02-28T12:29:51;96308.84;;;5.74;33.37
43480;BME280;29067;35.492;-97.520;2023-02-28T12:32:27;96308.65;;;5.73;33.45
43480;BME280;29067;35.492;-97.520;2023-02-28T12:35:01;96303.41;;;5.72;33.09
43480;BME280;29067;35.492;-97.520;2023-02-28T12:37:36;96299.31;;;6.38;32.50
43480;BME280;29067;35.492;-97.520;2023-02-28T12:40:12;96307.15;;;6.34;31.92
43480;BME280;29067;35.492;-97.520;2023-02-28T12:42:48;96308.33;;;6.63;31.82
43480;BME280;29067;35.492;-97.520;2023-02-28T12:45:21;96310.78;;;6.45;31.84
43480;BME280;29067;35.492;-97.520;2023-02-28T12:48:00;96319.79;;;5.85;32.19
43480;BME280;29067;35.492;-97.520;2023-02-28T12:50:33;96320.42;;;5.52;32.14
43480;BME280;29067;35.492;-97.520;2023-02-28T12:53:05;96319.06;;;6.02;31.73
43480;BME280;29067;35.492;-97.520;2023-02-28T12:55:48;96320.75;;;6.91;31.04
43480;BME280;29067;35.492;-97.520;2023-02-28T12:58:25;96332.95;;;7.26;31.36
43480;BME280;29067;35.492;-97.520;2023-02-28T13:01:22;96338.72;;;6.31;31.30
43480;BME280;29067;35.492;-97.520;2023-02-28T13:04:45;96338.47;;;7.03;30.74
43480;BME280;29067;35.492;-97.520;2023-02-28T13:08:36;96344.77;;;6.76;31.15
43480;BME280;29067;35.492;-97.520;2023-02-28T13:11:27;96340.66;;;6.05;31.55
43480;BME280;29067;35.492;-97.520;2023-02-28T13:13:59;96342.32;;;6.44;31.66
43480;BME280;29067;35.492;-97.520;2023-02-28T13:16:29;96347.25;;;6.83;31.74